Time;durP1;ratioP1;P1;durP2;ratioP2;P2;SDS_P1;SDS_P2;PMS_P1;PMS_P2;Temp;Humidity;BMP_temperature;BMP_pressure;BME280_temperature;BME280_humidity;BME280_pressure;Samples;Min_cycle;Max_cycle;Signal;HPM_P1;HPM_P2
2022/12/18 00:01:14;;;;;;;49.33;18.08;;;;;;;-5.33;100.00;102787.16;5011800;28;20064;-76
2022/12/18 00:03:39;;;;;;;48.45;16.52;;;;;;;-5.35;100.00;102782.00;5011209;28;20045;-76
2022/12/18 00:06:04;;;;;;;43.22;16.05;;;;;;;-5.39;100.00;102786.19;5011782;28;20494;-76
2022/12/18 00:08:30;;;;;;;50.28;17.73;;;;;;;-5.42;100.00;102778.44;4994313;28;20025;-76
2022/12/18 00:10:55;;;;;;;44.67;16.85;;;;;;;-5.45;100.00;102782.63;5010139;28;20032;-76
2022/12/18 00:13:20;;;;;;;51.92;17.67;;;;;;;-5.48;100.00;102787.69;5027662;28;20108;-76
2022/12/18 00:15:46;;;;;;;55.30;18.65;;;;;;;-5.49;100.00;102785.97;5013488;28;20025;-75
2022/12/18 00:18:12;;;;;;;80.07;50.45;;;;;;;-5.71;100.00;102784.56;5031290;28;20385;-76
2022/12/18 00:20:39;;;;;;;41.53;17.80;;;;;;;-5.57;100.00;102784.91;5030857;28;20370;-78
2022/12/18 00:23:05;;;;;;;44.97;17.02;;;;;;;-5.58;100.00;102775.50;5030309;28;20030;-77
2022/12/18 00:25:35;;;;;;;42.33;16.10;;;;;;;-5.58;100.00;102765.25;5031423;28;20037;-77
2022/12/18 00:28:01;;;;;;;42.03;15.90;;;;;;;-5.60;100.00;102761.75;5031543;28;20098;-77
2022/12/18 00:30:27;;;;;;;53.55;17.90;;;;;;;-5.63;100.00;102743.72;5012305;28;20054;-77
2022/12/18 00:32:52;;;;;;;52.38;17.30;;;;;;;-5.62;100.00;102743.75;5032181;28;20064;-77
2022/12/18 00:35:21;;;;;;;45.70;16.95;;;;;;;-5.60;100.00;102743.78;5014273;28;20108;-77
2022/12/18 00:37:46;;;;;;;52.13;16.65;;;;;;;-5.60;100.00;102746.34;5013795;28;20495;-77
2022/12/18 00:40:12;;;;;;;50.03;15.88;;;;;;;-5.60;100.00;102743.78;5031647;28;20030;-77
2022/12/18 00:42:55;;;;;;;74.40;48.92;;;;;;;-5.74;100.00;102734.09;5032146;28;20108;-77
2022/12/18 00:45:30;;;;;;;45.80;19.25;;;;;;;-5.63;100.00;102741.16;5011609;28;20021;-77
2022/12/18 00:47:57;;;;;;;78.13;49.35;;;;;;;-5.78;100.00;102736.56;5032015;28;20083;-77
2022/12/18 00:50:24;;;;;;;72.88;48.15;;;;;;;-5.84;100.00;102739.84;5030428;28;20022;-77
2022/12/18 00:52:50;;;;;;;51.45;17.92;;;;;;;-5.73;100.00;102740.09;5030909;28;20134;-77
2022/12/18 00:55:16;;;;;;;49.50;17.70;;;;;;;-5.75;100.00;102732.38;5031746;28;20096;-76
2022/12/18 00:57:41;;;;;;;47.15;17.13;;;;;;;-5.75;100.00;102737.50;5014006;28;20125;-76
2022/12/18 01:00:09;;;;;;;43.97;16.77;;;;;;;-5.76;100.00;102740.88;5030473;28;20045;-76
2022/12/18 01:02:35;;;;;;;47.92;16.67;;;;;;;-5.76;100.00;102746.00;5011007;28;20026;-76
2022/12/18 01:05:00;;;;;;;49.83;16.38;;;;;;;-5.76;100.00;102751.13;5009626;28;20021;-76
2022/12/18 01:07:26;;;;;;;47.22;17.23;;;;;;;-5.78;100.00;102742.56;4993144;28;20079;-75
2022/12/18 01:09:51;;;;;;;52.63;18.73;;;;;;;-5.77;100.00;102744.28;5011082;28;20022;-75
2022/12/18 01:12:16;;;;;;;42.33;15.75;;;;;;;-5.77;100.00;102753.66;5009934;28;20383;-75
2022/12/18 01:14:42;;;;;;;43.55;16.35;;;;;;;-5.78;100.00;102755.38;5009166;28;20068;-75
2022/12/18 01:17:07;;;;;;;68.78;46.03;;;;;;;-5.88;100.00;102761.09;4993157;28;20064;-76
2022/12/18 01:19:32;;;;;;;50.53;17.20;;;;;;;-5.82;100.00;102766.38;5013252;28;20171;-75
2022/12/18 01:21:58;;;;;;;45.78;17.52;;;;;;;-5.83;100.00;102763.78;4992907;28;20022;-75
2022/12/18 01:24:24;;;;;;;37.35;14.82;;;;;;;-5.84;100.00;102769.72;4992515;28;20070;-75
2022/12/18 01:26:49;;;;;;;42.58;16.63;;;;;;;-5.85;100.00;102771.44;5009687;28;20526;-77
2022/12/18 01:29:14;;;;;;;46.85;15.60;;;;;;;-5.85;100.00;102766.31;5010189;28;20033;-77
2022/12/18 01:31:40;;;;;;;47.95;17.42;;;;;;;-5.86;100.00;102761.16;4989428;28;20411;-76
2022/12/18 01:34:05;;;;;;;44.67;15.75;;;;;;;-5.87;100.00;102757.72;4989734;28;20479;-76
2022/12/18 01:36:34;;;;;;;42.83;16.80;;;;;;;-5.88;100.00;102761.09;5000728;28;20538;-77
2022/12/18 01:39:01;;;;;;;69.30;44.92;;;;;;;-6.01;100.00;102753.97;5010894;28;20030;-75
2022/12/18 01:42:01;;;;;;;42.60;16.60;;;;;;;-5.92;100.00;102754.22;5009913;28;20040;-76
2022/12/18 01:44:57;;;;;;;46.03;16.15;;;;;;;-5.91;100.00;102755.94;5011137;28;20037;-76
2022/12/18 01:47:27;;;;;;;41.40;16.27;;;;;;;-5.93;100.00;102755.03;5008430;28;20469;-75
2022/12/18 01:49:55;;;;;;;48.90;15.35;;;;;;;-5.94;100.00;102755.88;5009513;28;20529;-77
2022/12/18 01:52:22;;;;;;;35.65;14.13;;;;;;;-5.94;100.00;102750.75;5008158;28;20490;-74
2022/12/18 01:54:50;;;;;;;34.25;14.35;;;;;;;-5.92;100.00;102755.91;4992243;28;20428;-76
2022/12/18 01:57:16;;;;;;;62.35;40.92;;;;;;;-6.04;100.00;102751.31;4991510;28;20054;-76
2022/12/18 01:59:44;;;;;;;49.60;15.80;;;;;;;-5.94;100.00;102755.88;4991025;28;20431;-76
2022/12/18 02:02:11;;;;;;;42.22;15.88;;;;;;;-5.94;100.00;102748.19;4989387;28;20041;-76
2022/12/18 02:04:36;;;;;;;38.45;15.00;;;;;;;-5.95;100.00;102738.75;4991087;28;20026;-76
2022/12/18 02:07:11;;;;;;;40.20;15.10;;;;;;;-5.93;100.00;102736.25;5006275;28;20080;-76
2022/12/18 02:09:46;;;;;;;42.20;15.23;;;;;;;-5.93;100.00;102736.25;4988718;28;20026;-76
2022/12/18 02:12:42;;;;;;;34.58;13.70;;;;;;;-5.91;100.00;102740.56;5009460;28;20037;-76
2022/12/18 02:15:16;;;;;;;41.40;15.75;;;;;;;-5.92;100.00;102746.53;4999554;28;20033;-76
2022/12/18 02:17:59;;;;;;;32.83;13.65;;;;;;;-5.94;100.00;102737.94;5008749;28;20021;-76
2022/12/18 02:20:35;;;;;;;59.05;39.55;;;;;;;-6.05;100.00;102744.47;5007731;28;20445;-76
2022/12/18 02:23:31;;;;;;;39.22;14.82;;;;;;;-5.98;100.00;102741.25;5007749;28;20117;-76
2022/12/18 02:26:21;;;;;;;36.28;15.15;;;;;;;-5.97;100.00;102739.56;5004685;28;20026;-75
2022/12/18 02:28:53;;;;;;;36.67;14.38;;;;;;;-5.99;100.00;102742.09;4990177;28;20142;-76
2022/12/18 02:31:26;;;;;;;37.58;14.00;;;;;;;-6.02;100.00;102737.72;5003702;28;20081;-77
2022/12/18 02:33:58;;;;;;;34.95;13.63;;;;;;;-6.03;100.00;102733.44;5005049;28;20112;-77
2022/12/18 02:36:25;;;;;;;;;;;;;;;-6.02;100.00;102736.84;5010043;28;20068;-77
2022/12/18 02:38:52;;;;;;;55.20;37.22;;;;;;;-6.17;100.00;102729.66;5008017;28;19948;-76
2022/12/18 02:41:21;;;;;;;34.42;12.95;;;;;;;-6.07;100.00;102729.06;5009439;28;20022;-76
2022/12/18 02:44:01;;;;;;;48.72;15.13;;;;;;;-6.08;100.00;102729.03;4995740;28;20556;-76
2022/12/18 02:46:33;;;;;;;41.42;15.60;;;;;;;-6.11;100.00;102723.81;5004980;28;20037;-76
2022/12/18 02:49:12;;;;;;;42.22;16.88;;;;;;;-6.13;100.00;102720.38;4989302;28;20019;-76
2022/12/18 02:51:51;;;;;;;36.05;16.25;;;;;;;-6.14;100.00;102710.94;4989686;28;20368;-76
2022/12/18 02:54:27;;;;;;;38.38;15.13;;;;;;;-6.16;100.00;102705.78;4990759;28;20031;-77
2022/12/18 02:56:55;;;;;;;35.53;14.23;;;;;;;-6.17;100.00;102710.88;4989395;28;20015;-77
2022/12/18 02:59:30;;;;;;;34.33;14.40;;;;;;;-6.17;100.00;102710.88;4989833;28;20026;-77
2022/12/18 03:02:08;;;;;;;36.90;13.68;;;;;;;-6.17;100.00;102708.31;5009178;28;20447;-76
2022/12/18 03:04:51;;;;;;;37.90;14.25;;;;;;;-6.19;100.00;102710.84;5004983;28;20069;-77
2022/12/18 03:07:25;;;;;;;40.17;15.18;;;;;;;-6.21;100.00;102706.50;4989490;28;20057;-76
2022/12/18 03:09:53;;;;;;;31.92;13.05;;;;;;;-6.22;100.00;102700.53;5005640;28;20085;-77
2022/12/18 03:12:37;;;;;;;31.58;12.15;;;;;;;-6.21;100.00;102698.81;4988881;28;20033;-76
2022/12/18 03:15:09;;;;;;;33.58;12.38;;;;;;;-6.21;100.00;102691.13;4992735;28;20045;-77
2022/12/18 03:17:37;;;;;;;27.55;11.55;;;;;;;-6.23;100.00;102695.34;4997427;28;20036;-76
2022/12/18 03:20:10;;;;;;;45.03;31.83;;;;;;;-6.37;100.00;102684.78;4992544;28;20033;-76
2022/12/18 03:22:38;;;;;;;36.58;13.73;;;;;;;-6.29;100.00;102690.09;4992949;28;20037;-76
2022/12/18 03:25:08;;;;;;;35.38;12.77;;;;;;;-6.29;100.00;102695.22;5007864;28;20072;-76
2022/12/18 03:27:40;;;;;;;28.10;11.52;;;;;;;-6.30;100.00;102693.47;4992146;28;20033;-76
2022/12/18 03:30:12;;;;;;;30.83;12.52;;;;;;;-6.32;100.00;102693.44;4997116;28;20131;-77
2022/12/18 03:32:54;;;;;;;33.60;14.05;;;;;;;-6.33;100.00;102699.41;5012544;28;20029;-76
2022/12/18 03:35:27;;;;;;;29.75;11.07;;;;;;;-6.35;100.00;102698.50;5005165;28;20025;-76
2022/12/18 03:37:53;;;;;;;34.13;12.02;;;;;;;-6.36;100.00;102707.88;5032191;28;20013;-77
2022/12/18 03:40:31;;;;;;;29.92;12.27;;;;;;;-6.38;100.00;102704.41;5031221;28;20032;-77
2022/12/18 03:43:08;;;;;;;33.30;13.00;;;;;;;-6.39;100.00;102695.00;5014276;28;20076;-76
2022/12/18 03:45:47;;;;;;;32.33;13.05;;;;;;;-6.40;100.00;102698.38;5031771;28;20029;-75
2022/12/18 03:48:19;;;;;;;25.67;11.68;;;;;;;-6.39;100.00;102695.00;5013218;28;20032;-76
2022/12/18 03:50:44;;;;;;;32.65;13.82;;;;;;;-6.39;100.00;102687.31;5032335;28;20030;-76
2022/12/18 03:53:23;;;;;;;34.08;12.93;;;;;;;-6.39;100.00;102684.75;5018274;28;20104;-77
2022/12/18 03:55:51;;;;;;;29.83;12.68;;;;;;;-6.39;100.00;102676.19;5013230;28;20014;-77
2022/12/18 03:58:23;;;;;;;35.15;13.93;;;;;;;-6.41;100.00;102665.88;5013250;28;20022;-76
2022/12/18 04:00:53;;;;;;;33.30;15.02;;;;;;;-6.40;100.00;102667.66;5013210;28;20101;-79
2022/12/18 04:03:24;;;;;;;30.92;13.15;;;;;;;-6.39;100.00;102654.03;5012822;28;20113;-78
2022/12/18 04:05:52;;;;;;;32.28;12.73;;;;;;;-6.40;100.00;102652.28;5013008;28;20474;-76
2022/12/18 04:08:23;;;;;;;31.80;13.38;;;;;;;-6.41;100.00;102650.53;4998079;28;20080;-75
2022/12/18 04:10:48;;;;;;;28.10;12.27;;;;;;;-6.42;100.00;102648.78;5012964;28;20537;-76
2022/12/18 04:13:27;;;;;;;29.38;10.95;;;;;;;-6.41;100.00;102654.78;5012376;28;20112;-75
2022/12/18 04:15:52;;;;;;;34.17;11.55;;;;;;;-6.45;100.00;102643.59;5017338;28;20024;-76
2022/12/18 04:18:21;;;;;;;27.45;11.88;;;;;;;-6.45;100.00;102643.59;5032550;28;20021;-76
2022/12/18 04:20:46;;;;;;;25.08;12.20;;;;;;;-6.45;100.00;102635.91;5032921;28;20017;-76
2022/12/18 04:23:11;;;;;;;27.67;11.55;;;;;;;-6.43;100.00;102635.97;5013030;28;20496;-76
2022/12/18 04:25:37;;;;;;;27.42;9.63;;;;;;;-6.43;100.00;102635.97;5011923;28;20053;-76
2022/12/18 04:28:05;;;;;;;28.60;11.10;;;;;;;-6.43;100.00;102646.19;5032132;28;20326;-76
2022/12/18 04:30:30;;;;;;;31.13;11.82;;;;;;;-6.43;100.00;102647.06;5030787;28;20076;-76
2022/12/18 04:32:56;;;;;;;42.33;29.33;;;;;;;-6.50;100.00;102652.00;5031182;28;20053;-76
2022/12/18 04:35:21;;;;;;;27.38;11.63;;;;;;;-6.45;100.00;102658.97;5013236;28;20493;-76
2022/12/18 04:37:46;;;;;;;30.80;11.20;;;;;;;-6.45;100.00;102651.28;5012731;28;20033;-76
2022/12/18 04:40:12;;;;;;;29.35;11.95;;;;;;;-6.45;100.00;102656.41;5030219;28;20021;-76
2022/12/18 04:42:39;;;;;;;33.85;12.35;;;;;;;-6.44;100.00;102664.94;4998047;28;20034;-75
2022/12/18 04:45:05;;;;;;;22.98;11.27;;;;;;;-6.45;100.00;102666.63;5009929;28;20026;-75
2022/12/18 04:47:30;;;;;;;28.83;11.32;;;;;;;-6.46;100.00;102672.59;4993418;28;20061;-75
2022/12/18 04:49:56;;;;;;;29.45;12.10;;;;;;;-6.47;100.00;102675.13;5011186;28;20053;-75
2022/12/18 04:52:21;;;;;;;31.90;13.35;;;;;;;-6.46;100.00;102682.84;5010022;28;20103;-75
2022/12/18 04:54:47;;;;;;;28.80;12.68;;;;;;;-6.45;100.00;102691.38;5011345;28;20025;-75
2022/12/18 04:57:12;;;;;;;25.88;12.20;;;;;;;-6.46;100.00;102684.53;5010087;28;20049;-75
2022/12/18 04:59:38;;;;;;;36.20;27.20;;;;;;;-6.51;100.00;102683.53;5014829;28;20169;-75
2022/12/18 05:02:03;;;;;;;28.52;12.13;;;;;;;-6.46;100.00;102680.28;5010636;28;20033;-76
2022/12/18 05:04:28;;;;;;;28.08;11.90;;;;;;;-6.47;100.00;102670.84;5010110;28;20034;-76
2022/12/18 05:06:54;;;;;;;24.42;10.55;;;;;;;-6.48;100.00;102669.13;4993191;28;20032;-76
2022/12/18 05:09:19;;;;;;;26.35;11.02;;;;;;;-6.47;100.00;102677.69;4992763;28;20022;-76
2022/12/18 05:11:45;;;;;;;30.08;11.10;;;;;;;-6.49;100.00;102682.75;5009272;28;20128;-76
2022/12/18 05:14:10;;;;;;;39.20;27.00;;;;;;;-6.63;100.00;102690.09;5008817;28;20123;-76
2022/12/18 05:16:36;;;;;;;26.02;11.15;;;;;;;-6.53;100.00;102685.19;5014536;28;20026;-76
2022/12/18 05:19:01;;;;;;;24.40;10.00;;;;;;;-6.55;100.00;102687.72;5010404;28;20462;-75
2022/12/18 05:21:26;;;;;;;25.88;10.27;;;;;;;-6.55;100.00;102679.19;5010964;28;20036;-75
2022/12/18 05:23:55;;;;;;;24.75;10.85;;;;;;;-6.55;100.00;102680.03;4994001;28;20028;-75
2022/12/18 05:26:20;;;;;;;22.67;9.82;;;;;;;-6.54;100.00;102673.22;5010057;28;20402;-75
2022/12/18 05:28:46;;;;;;;23.77;10.70;;;;;;;-6.54;100.00;102678.34;5011563;28;20030;-75
2022/12/18 05:31:11;;;;;;;36.28;25.77;;;;;;;-6.63;100.00;102674.72;5010999;28;20065;-75
2022/12/18 05:33:36;;;;;;;28.75;11.85;;;;;;;-6.55;100.00;102674.94;5013496;28;20022;-75
2022/12/18 05:36:07;;;;;;;27.83;10.43;;;;;;;-6.55;100.00;102677.50;5013925;28;20049;-75
2022/12/18 05:38:35;;;;;;;25.73;10.30;;;;;;;-6.56;100.00;102674.88;5030902;28;20029;-75
2022/12/18 05:41:00;;;;;;;24.55;9.30;;;;;;;-6.59;100.00;102670.56;5012479;28;20532;-75
2022/12/18 05:43:27;;;;;;;25.55;9.45;;;;;;;-6.61;100.00;102661.97;5030083;28;20037;-75
2022/12/18 05:45:52;;;;;;;22.58;9.80;;;;;;;-6.63;100.00;102659.38;5013241;28;20021;-75
2022/12/18 05:48:21;;;;;;;29.13;10.90;;;;;;;-6.63;100.00;102661.06;5011890;28;20444;-75
2022/12/18 05:50:48;;;;;;;24.48;9.43;;;;;;;-6.64;100.00;102654.22;5002377;28;20391;-75
2022/12/18 05:53:16;;;;;;;25.45;9.88;;;;;;;-6.64;100.00;102664.47;5010112;28;20379;-74
2022/12/18 05:55:42;;;;;;;26.05;10.32;;;;;;;-6.64;100.00;102660.19;5009001;28;20121;-75
2022/12/18 05:58:09;;;;;;;27.25;12.02;;;;;;;-6.67;100.00;102657.56;4992125;28;20478;-75
2022/12/18 06:00:39;;;;;;;22.38;9.98;;;;;;;-6.68;100.00;102660.97;5009019;28;20034;-75
2022/12/18 06:03:05;;;;;;;26.63;10.50;;;;;;;-6.69;100.00;102661.78;5009658;28;20113;-75
2022/12/18 06:05:35;;;;;;;22.15;10.48;;;;;;;-6.69;100.00;102653.25;5008874;28;20109;-75
2022/12/18 06:08:00;;;;;;;20.77;9.45;;;;;;;-6.72;100.00;102648.91;5011733;28;20030;-75
2022/12/18 06:10:25;;;;;;;19.63;9.80;;;;;;;-6.74;100.00;102654.81;5009502;28;20481;-75
2022/12/18 06:12:51;;;;;;;25.42;9.98;;;;;;;-6.75;100.00;102653.09;5003114;28;20131;-76
2022/12/18 06:15:16;;;;;;;20.88;9.82;;;;;;;-6.77;100.00;102660.72;5028717;28;20024;-76
2022/12/18 06:17:41;;;;;;;36.88;24.83;;;;;;;-6.84;100.00;102663.06;5029290;28;20033;-76
2022/12/18 06:20:07;;;;;;;20.65;9.73;;;;;;;-6.78;100.00;102664.09;5029173;28;20025;-76
2022/12/18 06:22:33;;;;;;;28.10;11.55;;;;;;;-6.76;100.00;102666.72;5028649;28;20032;-75
2022/12/18 06:24:59;;;;;;;21.42;10.38;;;;;;;-6.75;100.00;102665.88;5013939;28;20068;-75
2022/12/18 06:27:24;;;;;;;30.95;11.18;;;;;;;-6.74;100.00;102668.47;5009449;28;20033;-76
2022/12/18 06:29:49;;;;;;;25.20;10.10;;;;;;;-6.72;100.00;102661.72;4991897;28;20430;-75
2022/12/18 06:32:15;;;;;;;23.27;9.27;;;;;;;-6.71;100.00;102660.88;4992833;28;20030;-74
2022/12/18 06:34:40;;;;;;;26.63;11.10;;;;;;;-6.70;100.00;102661.75;5010516;28;20038;-75
2022/12/18 06:37:05;;;;;;;24.45;9.68;;;;;;;-6.70;100.00;102662.59;5020461;28;20049;-75
2022/12/18 06:39:31;;;;;;;20.42;8.98;;;;;;;-6.68;100.00;102655.84;5025699;28;20026;-76
2022/12/18 06:41:56;;;;;;;27.17;11.38;;;;;;;-6.68;100.00;102650.72;5010456;28;20018;-76
2022/12/18 06:44:22;;;;;;;31.90;11.63;;;;;;;-6.67;100.00;102646.47;5009043;28;20029;-75
2022/12/18 06:46:47;;;;;;;25.75;10.95;;;;;;;-6.68;100.00;102642.19;5011075;28;20065;-75
2022/12/18 06:49:12;;;;;;;25.13;9.80;;;;;;;-6.68;100.00;102639.63;5014264;28;20056;-75
2022/12/18 06:51:38;;;;;;;23.70;10.43;;;;;;;-6.70;100.00;102637.03;5013282;28;20366;-75
2022/12/18 06:54:03;;;;;;;21.48;9.65;;;;;;;-6.71;100.00;102635.28;5014122;28;20080;-76
2022/12/18 06:56:29;;;;;;;27.88;10.63;;;;;;;-6.70;100.00;102636.16;5014310;28;20402;-75
2022/12/18 06:58:54;;;;;;;25.52;10.50;;;;;;;-6.70;100.00;102646.38;5017564;28;20029;-76
2022/12/18 07:01:20;;;;;;;34.95;25.40;;;;;;;-6.79;100.00;102641.03;5013368;28;20052;-75
2022/12/18 07:03:46;;;;;;;22.27;9.38;;;;;;;-6.72;100.00;102636.13;5012604;28;20030;-76
2022/12/18 07:06:17;;;;;;;23.35;9.90;;;;;;;-6.71;100.00;102635.28;5011627;28;20029;-76
2022/12/18 07:08:43;;;;;;;28.75;12.20;;;;;;;-6.70;100.00;102638.72;5013059;28;20115;-76
2022/12/18 07:11:08;;;;;;;22.30;10.40;;;;;;;-6.69;100.00;102630.22;5013465;28;20105;-75
2022/12/18 07:13:33;;;;;;;24.48;9.38;;;;;;;-6.70;100.00;102618.25;5014427;28;20021;-75
2022/12/18 07:16:07;;;;;;;24.98;8.77;;;;;;;-6.69;100.00;102612.28;5012684;28;20593;-75
2022/12/18 07:18:32;;;;;;;19.88;8.50;;;;;;;-6.70;100.00;102610.56;5031771;28;20061;-75
2022/12/18 07:20:58;;;;;;;24.33;9.60;;;;;;;-6.70;100.00;102610.56;5015107;28;20072;-75
2022/12/18 07:23:23;;;;;;;26.08;10.88;;;;;;;-6.70;100.00;102600.31;5014284;28;20017;-75
2022/12/18 07:25:48;;;;;;;20.67;10.02;;;;;;;-6.70;100.00;102585.84;5031761;28;20029;-76
2022/12/18 07:28:14;;;;;;;21.45;9.07;;;;;;;-6.70;100.00;102575.59;5014383;28;20036;-76
2022/12/18 07:30:39;;;;;;;25.15;10.15;;;;;;;-6.69;100.00;102581.59;5032163;28;20053;-76
2022/12/18 07:33:05;;;;;;;36.28;25.92;;;;;;;-6.75;100.00;102571.19;5027927;28;20377;-76
2022/12/18 07:35:30;;;;;;;22.05;10.32;;;;;;;-6.69;100.00;102576.47;4995662;28;20022;-76
2022/12/18 07:37:55;;;;;;;25.80;10.32;;;;;;;-6.67;100.00;102579.94;5031527;28;20474;-76
2022/12/18 07:40:21;;;;;;;26.58;10.73;;;;;;;-6.65;100.00;102570.59;5032051;28;20025;-76
2022/12/18 07:42:46;;;;;;;28.80;11.77;;;;;;;-6.61;100.00;102569.84;5033338;28;20082;-74
2022/12/18 07:45:12;;;;;;;24.85;10.48;;;;;;;-6.57;100.00;102566.50;5032383;28;20493;-75
2022/12/18 07:47:37;;;;;;;27.23;11.95;;;;;;;-6.55;100.00;102546.94;5014362;28;20032;-75
2022/12/18 07:50:04;;;;;;;26.30;11.35;;;;;;;-6.51;100.00;102546.19;5012392;28;20037;-75
2022/12/18 07:52:29;;;;;;;24.85;10.13;;;;;;;-6.47;100.00;102539.44;5013034;28;20026;-75
2022/12/18 07:54:55;;;;;;;26.45;9.52;;;;;;;-6.44;100.00;102542.06;5012580;28;20018;-75
2022/12/18 07:57:20;;;;;;;28.65;12.38;;;;;;;-6.41;100.00;102531.88;5011450;28;20497;-75
2022/12/18 07:59:46;;;;;;;27.27;11.77;;;;;;;-6.36;100.00;102526.06;5011969;28;20033;-75
2022/12/18 08:02:11;;;;;;;28.60;11.63;;;;;;;-6.32;100.00;102532.97;5012202;28;20030;-75
2022/12/18 08:04:37;;;;;;;28.33;10.57;;;;;;;-6.28;100.00;102538.16;5012612;28;20050;-75
2022/12/18 08:07:05;;;;;;;24.15;11.50;;;;;;;-6.23;100.00;102546.81;5011541;28;20053;-76
2022/12/18 08:09:31;;;;;;;22.52;10.88;;;;;;;-6.19;100.00;102549.47;4994638;28;20161;-76
2022/12/18 08:11:56;;;;;;;21.33;9.70;;;;;;;-6.13;100.00;102549.59;5010545;28;20428;-76
2022/12/18 08:14:21;;;;;;;28.15;11.73;;;;;;;-6.09;100.00;102538.59;5011042;28;20458;-74
2022/12/18 08:16:46;;;;;;;25.15;10.82;;;;;;;-6.05;100.00;102536.97;4994689;28;20025;-75
2022/12/18 08:19:12;;;;;;;25.08;11.43;;;;;;;-6.01;100.00;102533.63;5011732;28;20454;-76
2022/12/18 08:21:40;;;;;;;24.77;10.98;;;;;;;-5.96;100.00;102547.44;4993388;28;20388;-76
2022/12/18 08:24:06;;;;;;;25.52;11.63;;;;;;;-5.89;100.00;102556.09;5011729;28;20037;-76
2022/12/18 08:26:31;;;;;;;24.92;11.20;;;;;;;-5.86;100.00;102551.88;5000074;28;20034;-76
2022/12/18 08:28:58;;;;;;;26.98;12.38;;;;;;;-5.82;100.00;102548.53;5010996;28;20048;-75
2022/12/18 08:31:24;;;;;;;33.22;25.63;;;;;;;-5.79;100.00;102546.03;5011173;28;20050;-75
2022/12/18 08:33:52;;;;;;;29.58;11.85;;;;;;;-5.71;100.00;102553.88;5011714;28;20025;-76
2022/12/18 08:36:19;;;;;;;27.25;11.52;;;;;;;-5.66;100.00;102552.25;5015479;28;20515;-75
2022/12/18 08:38:45;;;;;;;20.00;10.40;;;;;;;-5.62;100.00;102550.63;5031668;28;20029;-75
2022/12/18 08:41:12;;;;;;;21.90;9.70;;;;;;;-5.57;99.82;102542.22;5013478;28;20033;-75
2022/12/18 08:46:24;;;;;;;22.67;9.75;;;;;;;-5.51;99.96;102531.22;5011617;28;20502;-75
2022/12/18 08:48:54;;;;;;;27.38;11.95;;;;;;;-5.47;99.37;102517.59;5012356;28;20386;-76
2022/12/18 08:51:20;;;;;;;32.63;24.92;;;;;;;-5.48;98.60;102521.00;4993361;28;20641;-76
2022/12/18 08:53:46;;;;;;;31.48;10.90;;;;;;;-5.41;99.43;102527.97;5012248;28;20025;-75
2022/12/18 08:56:12;;;;;;;36.35;25.20;;;;;;;-5.39;98.57;102528.88;5011489;28;20418;-75
2022/12/18 08:58:37;;;;;;;20.48;10.50;;;;;;;-5.31;99.01;102535.00;5011535;28;20474;-76
2022/12/18 09:01:05;;;;;;;26.95;11.75;;;;;;;-5.27;98.17;102513.69;4997560;28;20044;-75
2022/12/18 09:03:30;;;;;;;23.10;11.18;;;;;;;-5.22;98.23;102518.91;5031004;28;20115;-75
2022/12/18 09:05:56;;;;;;;33.17;25.08;;;;;;;-5.22;98.04;102524.88;5031354;28;20105;-75
2022/12/18 09:08:21;;;;;;;23.95;10.63;;;;;;;-5.14;98.33;102528.47;5013134;28;20021;-75
2022/12/18 09:10:49;;;;;;;27.15;10.60;;;;;;;-5.10;98.92;102543.09;5012266;28;20108;-75
2022/12/18 09:13:16;;;;;;;25.95;10.20;;;;;;;-5.06;97.85;102547.44;5009440;28;20389;-75
2022/12/18 09:15:45;;;;;;;27.25;11.43;;;;;;;-4.99;98.14;102552.66;4993040;28;20018;-76
2022/12/18 09:18:10;;;;;;;22.25;9.50;;;;;;;-4.94;97.94;102553.59;5014450;28;20466;-75
2022/12/18 09:20:37;;;;;;;34.63;25.83;;;;;;;-4.99;96.97;102544.97;5010657;28;20022;-75
2022/12/18 09:23:06;;;;;;;26.63;11.55;;;;;;;-4.89;97.86;102559.69;5010783;28;20394;-75
2022/12/18 09:25:33;;;;;;;22.83;10.90;;;;;;;-4.85;97.42;102548.63;4992476;28;20363;-77
2022/12/18 09:28:21;;;;;;;25.95;11.57;;;;;;;-4.81;97.42;102541.00;5010879;28;20088;-77
2022/12/18 09:30:48;;;;;;;25.92;9.77;;;;;;;-4.77;97.68;102529.09;5010968;28;20054;-76
2022/12/18 09:33:14;;;;;;;31.15;12.48;;;;;;;-4.74;96.52;102518.88;5010470;28;20033;-77
2022/12/18 09:35:41;;;;;;;24.05;10.13;;;;;;;-4.69;96.73;102518.94;5012345;28;20018;-76
2022/12/18 09:38:11;;;;;;;30.52;12.05;;;;;;;-4.67;96.15;102520.69;5029678;28;20017;-76
2022/12/18 09:40:42;;;;;;;23.30;10.98;;;;;;;-4.63;95.62;102511.34;5029326;28;20112;-76
2022/12/18 09:43:17;;;;;;;29.15;13.18;;;;;;;-4.61;95.21;102519.94;5012480;28;20081;-75
2022/12/18 09:45:47;;;;;;;33.67;24.25;;;;;;;-4.64;94.63;102520.75;5011369;28;20045;-75
2022/12/18 09:48:21;;;;;;;27.30;12.43;;;;;;;-4.56;95.29;102506.31;5029775;28;20028;-75
2022/12/18 09:50:50;;;;;;;27.40;12.40;;;;;;;-4.53;94.42;102498.66;5021890;28;20025;-76
2022/12/18 09:53:21;;;;;;;28.63;14.35;;;;;;;-4.50;94.56;102487.56;5009511;28;20022;-76
2022/12/18 09:55:48;;;;;;;33.38;25.98;;;;;;;-4.50;94.61;102485.84;5009306;28;20029;-76
2022/12/18 09:58:17;;;;;;;25.35;10.93;;;;;;;-4.42;94.76;102489.38;5010100;28;20036;-76
2022/12/18 10:00:42;;;;;;;26.13;11.07;;;;;;;-4.34;94.96;102497.22;5008130;28;20052;-76
2022/12/18 10:03:16;;;;;;;27.33;11.10;;;;;;;-4.28;95.12;102502.44;5009315;28;20022;-76
2022/12/18 10:06:06;;;;;;;28.20;12.57;;;;;;;-4.22;94.82;102492.25;5013799;28;20816;-75
2022/12/18 10:08:52;;;;;;;32.50;12.20;;;;;;;-4.15;94.66;102498.31;5029700;28;20021;-75
2022/12/18 10:11:38;;;;;;;36.05;27.02;;;;;;;-4.14;93.95;102498.34;5030408;28;20025;-75
2022/12/18 10:14:15;;;;;;;33.88;11.68;;;;;;;-4.04;93.13;102499.31;5029507;28;20076;-74
2022/12/18 10:17:17;;;;;;;23.10;10.40;;;;;;;-3.96;93.52;102502.88;5012351;28;20037;-75
2022/12/18 10:20:17;;;;;;;28.65;11.98;;;;;;;-3.89;94.22;102508.94;5030018;28;20022;-75
2022/12/18 10:22:45;;;;;;;29.05;11.57;;;;;;;-3.83;94.75;102507.31;5019433;28;20029;-75
2022/12/18 10:25:47;;;;;;;22.50;10.52;;;;;;;-3.76;94.40;102499.66;5009976;28;20030;-75
2022/12/18 10:28:15;;;;;;;28.17;11.95;;;;;;;-3.72;94.97;102492.00;4969030;28;20509;-75
2022/12/18 10:30:42;;;;;;;26.08;10.93;;;;;;;-3.65;94.69;102482.63;5008920;28;20392;-75
2022/12/18 10:33:29;;;;;;;27.02;12.23;;;;;;;-3.59;92.93;102480.16;4992528;28;20030;-75
2022/12/18 10:35:55;;;;;;;25.85;11.05;;;;;;;-3.56;93.75;102469.91;4993174;28;20076;-75
2022/12/18 10:38:21;;;;;;;32.03;24.92;;;;;;;-3.60;92.32;102461.28;5024235;28;20029;-76
2022/12/18 10:40:51;;;;;;;30.10;11.30;;;;;;;-3.49;92.15;102461.38;5008771;28;20525;-75
2022/12/18 10:43:22;;;;;;;26.10;11.73;;;;;;;-3.43;92.17;102453.72;5009219;28;20447;-75
2022/12/18 10:46:07;;;;;;;28.08;11.85;;;;;;;-3.37;92.93;102437.47;5009966;28;20133;-75
2022/12/18 10:48:36;;;;;;;28.17;12.05;;;;;;;-3.32;92.98;102451.25;5008111;28;20037;-75
2022/12/18 10:51:03;;;;;;;27.77;11.40;;;;;;;-3.27;92.47;102450.44;5008923;28;20026;-75
2022/12/18 10:53:30;;;;;;;30.83;24.65;;;;;;;-3.29;91.25;102446.97;5009778;28;20037;-75
2022/12/18 10:56:04;;;;;;;29.02;11.55;;;;;;;-3.19;91.72;102443.66;5010873;28;20021;-75
2022/12/18 10:58:33;;;;;;;28.90;23.60;;;;;;;-3.22;91.55;102423.00;5026603;28;20609;-75
2022/12/18 11:01:15;;;;;;;24.63;10.68;;;;;;;-3.13;91.71;102422.25;5029418;28;20029;-75
2022/12/18 11:03:42;;;;;;;27.45;11.93;;;;;;;-3.10;91.35;102416.25;5010881;28;20022;-75
2022/12/18 11:06:16;;;;;;;28.05;11.65;;;;;;;-3.07;90.86;102418.84;5028769;28;20061;-75
2022/12/18 11:08:44;;;;;;;24.48;11.13;;;;;;;-3.03;91.60;102420.59;5011153;28;20544;-76
2022/12/18 11:11:28;;;;;;;22.15;10.15;;;;;;;-3.00;91.20;102418.91;5010746;28;20083;-74
2022/12/18 11:14:03;;;;;;;29.10;23.02;;;;;;;-3.04;90.20;102431.75;5006390;28;20025;-74
2022/12/18 11:16:32;;;;;;;29.17;23.08;;;;;;;-3.00;89.66;102428.34;5009330;28;20431;-75